Terminal Aerodrome Forecast
Issued by NWS

Home | Current Version | Previous Version | Graphics & Text | Print | Product List | Glossary On
Versions: 1 2 3 4 5 6 7 8 9 10 11 12 13 14
848
FTUS43 KMPX 040540
TAFRWF
TAF
KRWF 040540Z 0406/0506 22007KT P6SM OVC040
     FM041200 24008KT 6SM -SN OVC035
      TEMPO 0413/0415 3SM -SN BR OVC022
     FM041600 31010KT P6SM OVC025
     FM042000 31008KT P6SM SCT020=

USA.gov is the U.S. government's official web portal to all federal, state and local government web resources and services.